sensor_id;sensor_type;location;lat;lon;timestamp;pressure;altitude;pressure_sealevel;temperature;humidity
34124;BME280;13153;52.316;21.166;2023-04-01T00:01:04;98432.66;;;15.36;64.19
34124;BME280;13153;52.316;21.166;2023-04-01T00:03:30;98430.09;;;15.33;64.09
34124;BME280;13153;52.316;21.166;2023-04-01T00:05:59;98428.31;;;15.33;63.88
34124;BME280;13153;52.316;21.166;2023-04-01T00:08:26;98424.72;;;15.36;64.02
34124;BME280;13153;52.316;21.166;2023-04-01T00:10:53;98414.91;;;15.39;64.32
34124;BME280;13153;52.316;21.166;2023-04-01T00:13:20;98415.75;;;15.41;64.21
34124;BME280;13153;52.316;21.166;2023-04-01T00:15:47;98410.47;;;15.40;64.04
34124;BME280;13153;52.316;21.166;2023-04-01T00:18:14;98410.47;;;15.40;64.13
34124;BME280;13153;52.316;21.166;2023-04-01T00:20:46;98413.13;;;15.40;63.69
34124;BME280;13153;52.316;21.166;2023-04-01T00:23:13;98417.66;;;15.35;63.85
34124;BME280;13153;52.316;21.166;2023-04-01T00:25:39;98419.44;;;15.34;64.04
34124;BME280;13153;52.316;21.166;2023-04-01T00:28:05;98420.25;;;15.38;63.98
34124;BME280;13153;52.316;21.166;2023-04-01T00:30:31;98411.38;;;15.39;63.90
34124;BME280;13153;52.316;21.166;2023-04-01T00:32:57;98409.56;;;15.41;63.83
34124;BME280;13153;52.316;21.166;2023-04-01T00:35:23;98403.41;;;15.40;63.79
34124;BME280;13153;52.316;21.166;2023-04-01T00:37:49;98406.88;;;15.42;63.56
34124;BME280;13153;52.316;21.166;2023-04-01T00:40:33;98404.16;;;15.45;63.62
34124;BME280;13153;52.316;21.166;2023-04-01T00:43:00;98402.38;;;15.46;63.75
34124;BME280;13153;52.316;21.166;2023-04-01T00:45:42;98400.69;;;15.43;63.91
34124;BME280;13153;52.316;21.166;2023-04-01T00:48:15;98398.94;;;15.42;63.67
34124;BME280;13153;52.316;21.166;2023-04-01T00:50:49;98392.72;;;15.43;63.82
34124;BME280;13153;52.316;21.166;2023-04-01T00:53:19;98383.00;;;15.44;63.88
34124;BME280;13153;52.316;21.166;2023-04-01T00:55:57;98381.19;;;15.46;63.84
34124;BME280;13153;52.316;21.166;2023-04-01T00:58:29;98386.47;;;15.46;63.37
34124;BME280;13153;52.316;21.166;2023-04-01T01:00:58;98388.28;;;15.44;63.46
34124;BME280;13153;52.316;21.166;2023-04-01T01:03:25;98393.59;;;15.44;63.63
34124;BME280;13153;52.316;21.166;2023-04-01T01:08:50;98384.78;;;15.43;63.50
34124;BME280;13153;52.316;21.166;2023-04-01T01:11:54;98390.97;;;15.42;63.57
34124;BME280;13153;52.316;21.166;2023-04-01T01:18:04;98391.03;;;15.41;63.38
34124;BME280;13153;52.316;21.166;2023-04-01T01:26:36;98388.47;;;15.36;63.76
34124;BME280;13153;52.316;21.166;2023-04-01T01:35:46;98392.09;;;15.34;63.79
34124;BME280;13153;52.316;21.166;2023-04-01T01:38:24;98391.19;;;15.35;63.92
34124;BME280;13153;52.316;21.166;2023-04-01T01:40:53;98384.09;;;15.35;63.75
34124;BME280;13153;52.316;21.166;2023-04-01T01:43:29;98387.69;;;15.33;63.93
34124;BME280;13153;52.316;21.166;2023-04-01T01:46:00;98396.50;;;15.33;63.97
34124;BME280;13153;52.316;21.166;2023-04-01T01:48:29;98396.44;;;15.36;63.93
34124;BME280;13153;52.316;21.166;2023-04-01T01:50:56;98399.88;;;15.40;64.00
34124;BME280;13153;52.316;21.166;2023-04-01T01:53:22;98396.34;;;15.39;63.60
34124;BME280;13153;52.316;21.166;2023-04-01T01:55:48;98396.41;;;15.38;63.85
34124;BME280;13153;52.316;21.166;2023-04-01T01:58:33;98393.66;;;15.41;64.02
34124;BME280;13153;52.316;21.166;2023-04-01T02:01:12;98391.03;;;15.41;63.80
34124;BME280;13153;52.316;21.166;2023-04-01T02:03:40;98389.22;;;15.43;63.83
34124;BME280;13153;52.316;21.166;2023-04-01T02:06:10;98394.53;;;15.41;63.90
34124;BME280;13153;52.316;21.166;2023-04-01T02:09:00;98390.97;;;15.42;63.88
34124;BME280;13153;52.316;21.166;2023-04-01T02:14:39;98382.16;;;15.42;63.99
34124;BME280;13153;52.316;21.166;2023-04-01T02:17:20;98383.09;;;15.39;63.71
34124;BME280;13153;52.316;21.166;2023-04-01T02:20:06;98384.81;;;15.42;64.00
34124;BME280;13153;52.316;21.166;2023-04-01T02:22:42;98374.22;;;15.42;63.82
34124;BME280;13153;52.316;21.166;2023-04-01T02:25:30;98375.13;;;15.41;63.78
34124;BME280;13153;52.316;21.166;2023-04-01T02:27:58;98373.38;;;15.40;64.09
34124;BME280;13153;52.316;21.166;2023-04-01T02:30:27;98378.66;;;15.41;63.87
34124;BME280;13153;52.316;21.166;2023-04-01T02:32:57;98370.66;;;15.43;64.06
34124;BME280;13153;52.316;21.166;2023-04-01T02:35:24;98360.06;;;15.43;64.01
34124;BME280;13153;52.316;21.166;2023-04-01T02:37:51;98354.78;;;15.41;63.80
34124;BME280;13153;52.316;21.166;2023-04-01T02:40:18;98354.88;;;15.38;63.82
34124;BME280;13153;52.316;21.166;2023-04-01T02:42:44;98361.06;;;15.37;63.76
34124;BME280;13153;52.316;21.166;2023-04-01T02:45:11;98359.34;;;15.36;64.07
34124;BME280;13153;52.316;21.166;2023-04-01T02:47:37;98355.84;;;15.34;64.03
34124;BME280;13153;52.316;21.166;2023-04-01T02:50:05;98347.88;;;15.36;64.08
34124;BME280;13153;52.316;21.166;2023-04-01T02:52:31;98347.84;;;15.37;63.81
34124;BME280;13153;52.316;21.166;2023-04-01T02:54:58;98347.00;;;15.35;63.93
34124;BME280;13153;52.316;21.166;2023-04-01T02:57:24;98353.25;;;15.33;63.81
34124;BME280;13153;52.316;21.166;2023-04-01T02:59:50;98356.81;;;15.32;63.93
34124;BME280;13153;52.316;21.166;2023-04-01T03:02:17;98362.03;;;15.35;64.14
34124;BME280;13153;52.316;21.166;2023-04-01T03:04:43;98361.97;;;15.36;64.01
34124;BME280;13153;52.316;21.166;2023-04-01T03:07:09;98362.03;;;15.35;63.77
34124;BME280;13153;52.316;21.166;2023-04-01T03:09:38;98359.38;;;15.35;63.80
34124;BME280;13153;52.316;21.166;2023-04-01T03:12:05;98369.94;;;15.36;63.85
34124;BME280;13153;52.316;21.166;2023-04-01T03:14:31;98369.09;;;15.34;63.66
34124;BME280;13153;52.316;21.166;2023-04-01T03:16:57;98376.19;;;15.34;63.80
34124;BME280;13153;52.316;21.166;2023-04-01T03:19:22;98378.84;;;15.34;63.79
34124;BME280;13153;52.316;21.166;2023-04-01T03:21:48;98370.06;;;15.32;63.79
34124;BME280;13153;52.316;21.166;2023-04-01T03:24:14;98377.13;;;15.31;63.27
34124;BME280;13153;52.316;21.166;2023-04-01T03:26:40;98374.44;;;15.33;63.39
34124;BME280;13153;52.316;21.166;2023-04-01T03:29:06;98384.16;;;15.32;63.44
34124;BME280;13153;52.316;21.166;2023-04-01T03:31:31;98381.56;;;15.31;63.22
34124;BME280;13153;52.316;21.166;2023-04-01T03:33:57;98383.28;;;15.32;63.32
34124;BME280;13153;52.316;21.166;2023-04-01T03:36:23;98382.44;;;15.31;63.13
34124;BME280;13153;52.316;21.166;2023-04-01T03:38:49;98383.25;;;15.33;62.90
34124;BME280;13153;52.316;21.166;2023-04-01T03:41:16;98386.91;;;15.29;63.18
34124;BME280;13153;52.316;21.166;2023-04-01T03:43:43;98390.50;;;15.27;63.20
34124;BME280;13153;52.316;21.166;2023-04-01T03:46:09;98385.25;;;15.24;63.10
34124;BME280;13153;52.316;21.166;2023-04-01T03:48:35;98391.41;;;15.26;62.77
34124;BME280;13153;52.316;21.166;2023-04-01T03:51:01;98394.03;;;15.26;63.07
34124;BME280;13153;52.316;21.166;2023-04-01T03:53:27;98398.47;;;15.25;62.67
34124;BME280;13153;52.316;21.166;2023-04-01T03:55:53;98395.91;;;15.22;62.63
34124;BME280;13153;52.316;21.166;2023-04-01T03:58:19;98406.50;;;15.22;62.83
34124;BME280;13153;52.316;21.166;2023-04-01T04:00:46;98399.41;;;15.23;62.87
34124;BME280;13153;52.316;21.166;2023-04-01T04:03:12;98411.75;;;15.24;63.19
34124;BME280;13153;52.316;21.166;2023-04-01T04:05:37;98416.19;;;15.23;62.96
34124;BME280;13153;52.316;21.166;2023-04-01T04:08:03;98421.41;;;15.26;63.31
34124;BME280;13153;52.316;21.166;2023-04-01T04:10:29;98414.34;;;15.27;63.18
34124;BME280;13153;52.316;21.166;2023-04-01T04:12:55;98420.47;;;15.29;63.05
34124;BME280;13153;52.316;21.166;2023-04-01T04:15:22;98422.22;;;15.30;63.24
34124;BME280;13153;52.316;21.166;2023-04-01T04:17:48;98422.22;;;15.30;63.17
34124;BME280;13153;52.316;21.166;2023-04-01T04:20:14;98425.75;;;15.29;62.95
34124;BME280;13153;52.316;21.166;2023-04-01T04:22:40;98424.97;;;15.25;63.25
34124;BME280;13153;52.316;21.166;2023-04-01T04:25:07;98422.34;;;15.24;63.20
34124;BME280;13153;52.316;21.166;2023-04-01T04:27:34;98435.53;;;15.27;63.25
34124;BME280;13153;52.316;21.166;2023-04-01T04:30:00;98427.66;;;15.24;62.86
34124;BME280;13153;52.316;21.166;2023-04-01T04:32:26;98423.22;;;15.24;62.68
34124;BME280;13153;52.316;21.166;2023-04-01T04:34:52;98424.16;;;15.22;62.67
34124;BME280;13153;52.316;21.166;2023-04-01T04:37:18;98420.59;;;15.23;62.77
34124;BME280;13153;52.316;21.166;2023-04-01T04:39:43;98428.59;;;15.21;62.67
34124;BME280;13153;52.316;21.166;2023-04-01T04:42:09;98425.91;;;15.23;62.40
34124;BME280;13153;52.316;21.166;2023-04-01T04:44:35;98430.34;;;15.22;62.79
34124;BME280;13153;52.316;21.166;2023-04-01T04:47:01;98441.81;;;15.23;62.73
34124;BME280;13153;52.316;21.166;2023-04-01T04:49:27;98438.25;;;15.24;62.36
34124;BME280;13153;52.316;21.166;2023-04-01T04:51:53;98439.16;;;15.23;62.27
34124;BME280;13153;52.316;21.166;2023-04-01T04:54:19;98443.59;;;15.22;62.42
34124;BME280;13153;52.316;21.166;2023-04-01T04:56:45;98440.09;;;15.20;62.39
34124;BME280;13153;52.316;21.166;2023-04-01T04:59:10;98447.22;;;15.18;62.32
34124;BME280;13153;52.316;21.166;2023-04-01T05:01:38;98446.38;;;15.16;62.21
34124;BME280;13153;52.316;21.166;2023-04-01T05:04:04;98441.03;;;15.17;62.23
34124;BME280;13153;52.316;21.166;2023-04-01T05:06:30;98435.72;;;15.19;62.01
34124;BME280;13153;52.316;21.166;2023-04-01T05:08:57;98442.75;;;15.20;62.03
34124;BME280;13153;52.316;21.166;2023-04-01T05:11:23;98449.78;;;15.21;61.82
34124;BME280;13153;52.316;21.166;2023-04-01T05:13:51;98450.66;;;15.22;61.88
34124;BME280;13153;52.316;21.166;2023-04-01T05:16:19;98440.00;;;15.25;61.87
34124;BME280;13153;52.316;21.166;2023-04-01T05:18:46;98451.47;;;15.25;61.86
34124;BME280;13153;52.316;21.166;2023-04-01T05:21:14;98445.28;;;15.25;61.62
34124;BME280;13153;52.316;21.166;2023-04-01T05:23:41;98443.47;;;15.27;61.30
34124;BME280;13153;52.316;21.166;2023-04-01T05:26:13;98447.91;;;15.26;61.54
34124;BME280;13153;52.316;21.166;2023-04-01T05:28:40;98455.81;;;15.28;61.33
34124;BME280;13153;52.316;21.166;2023-04-01T05:31:07;98453.13;;;15.29;61.15
34124;BME280;13153;52.316;21.166;2023-04-01T05:33:34;98451.31;;;15.31;61.37
34124;BME280;13153;52.316;21.166;2023-04-01T05:36:15;98453.84;;;15.36;61.11
34124;BME280;13153;52.316;21.166;2023-04-01T05:38:42;98451.19;;;15.37;61.07
34124;BME280;13153;52.316;21.166;2023-04-01T05:41:09;98449.41;;;15.38;61.06
34124;BME280;13153;52.316;21.166;2023-04-01T05:43:39;98449.50;;;15.33;60.71
34124;BME280;13153;52.316;21.166;2023-04-01T05:46:05;98455.59;;;15.37;60.44
34124;BME280;13153;52.316;21.166;2023-04-01T05:48:34;98459.91;;;15.41;60.83
34124;BME280;13153;52.316;21.166;2023-04-01T05:51:03;98458.94;;;15.45;60.24
34124;BME280;13153;52.316;21.166;2023-04-01T05:53:29;98458.94;;;15.45;60.22
34124;BME280;13153;52.316;21.166;2023-04-01T05:55:55;98458.06;;;15.44;59.73
34124;BME280;13153;52.316;21.166;2023-04-01T05:58:21;98466.94;;;15.43;59.93
34124;BME280;13153;52.316;21.166;2023-04-01T06:00:47;98475.78;;;15.42;59.79
34124;BME280;13153;52.316;21.166;2023-04-01T06:03:12;98468.78;;;15.40;59.69
34124;BME280;13153;52.316;21.166;2023-04-01T06:05:42;98473.31;;;15.35;59.95
34124;BME280;13153;52.316;21.166;2023-04-01T06:08:15;98475.06;;;15.36;60.05
34124;BME280;13153;52.316;21.166;2023-04-01T06:28:35;98486.88;;;15.95;58.97
34124;BME280;13153;52.316;21.166;2023-04-01T06:31:46;98487.03;;;16.22;58.77
34124;BME280;13153;52.316;21.166;2023-04-01T06:40:41;98485.81;;;17.53;54.89
34124;BME280;13153;52.316;21.166;2023-04-01T06:54:58;98488.88;;;18.71;51.18
34124;BME280;13153;52.316;21.166;2023-04-01T06:57:46;98486.78;;;18.54;51.03
34124;BME280;13153;52.316;21.166;2023-04-01T07:00:32;98480.25;;;18.39;51.50
34124;BME280;13153;52.316;21.166;2023-04-01T07:03:33;98480.47;;;18.33;51.79
34124;BME280;13153;52.316;21.166;2023-04-01T07:06:05;98483.22;;;18.30;52.00
34124;BME280;13153;52.316;21.166;2023-04-01T07:08:38;98474.69;;;18.21;52.09
34124;BME280;13153;52.316;21.166;2023-04-01T07:11:28;98481.16;;;18.13;51.74
34124;BME280;13153;52.316;21.166;2023-04-01T07:14:04;98487.53;;;18.08;51.58
34124;BME280;13153;52.316;21.166;2023-04-01T07:16:47;98481.50;;;18.03;51.46
34124;BME280;13153;52.316;21.166;2023-04-01T07:19:29;98481.97;;;18.15;51.08
34124;BME280;13153;52.316;21.166;2023-04-01T07:22:09;98478.06;;;18.26;51.24
34124;BME280;13153;52.316;21.166;2023-04-01T07:24:44;98481.53;;;18.28;50.96
34124;BME280;13153;52.316;21.166;2023-04-01T07:27:12;98477.09;;;18.28;51.13
34124;BME280;13153;52.316;21.166;2023-04-01T07:29:40;98482.63;;;18.47;51.07
34124;BME280;13153;52.316;21.166;2023-04-01T07:32:29;98475.44;;;18.49;50.28
34124;BME280;13153;52.316;21.166;2023-04-01T07:35:46;98494.00;;;18.51;50.25
34124;BME280;13153;52.316;21.166;2023-04-01T07:38:39;98479.22;;;18.43;49.53
34124;BME280;13153;52.316;21.166;2023-04-01T07:44:47;98486.53;;;18.37;49.88
34124;BME280;13153;52.316;21.166;2023-04-01T07:50:31;98482.81;;;18.91;49.10
34124;BME280;13153;52.316;21.166;2023-04-01T07:55:47;98484.34;;;19.20;48.45
34124;BME280;13153;52.316;21.166;2023-04-01T08:01:18;98492.94;;;18.81;49.96
34124;BME280;13153;52.316;21.166;2023-04-01T08:04:21;98484.41;;;18.71;50.05
34124;BME280;13153;52.316;21.166;2023-04-01T08:07:15;98492.94;;;18.81;50.51
34124;BME280;13153;52.316;21.166;2023-04-01T08:21:27;98495.13;;;19.17;48.68
34124;BME280;13153;52.316;21.166;2023-04-01T08:23:58;98495.00;;;19.20;48.25
34124;BME280;13153;52.316;21.166;2023-04-01T08:26:46;98499.63;;;19.14;48.25
34124;BME280;13153;52.316;21.166;2023-04-01T08:29:32;98499.81;;;19.10;48.53
34124;BME280;13153;52.316;21.166;2023-04-01T08:32:18;98503.19;;;18.92;48.63
34124;BME280;13153;52.316;21.166;2023-04-01T08:35:07;98500.94;;;18.81;49.03
34124;BME280;13153;52.316;21.166;2023-04-01T08:37:39;98500.41;;;18.71;49.26
34124;BME280;13153;52.316;21.166;2023-04-01T08:45:48;98499.22;;;18.54;49.71
34124;BME280;13153;52.316;21.166;2023-04-01T08:48:42;98510.56;;;18.35;49.72
34124;BME280;13153;52.316;21.166;2023-04-01T09:28:19;98517.13;;;18.25;49.57
34124;BME280;13153;52.316;21.166;2023-04-01T09:37:17;98522.94;;;17.85;50.46
34124;BME280;13153;52.316;21.166;2023-04-01T09:40:18;98533.91;;;17.74;50.84
34124;BME280;13153;52.316;21.166;2023-04-01T09:46:09;98538.97;;;17.54;52.42
34124;BME280;13153;52.316;21.166;2023-04-01T10:53:55;98560.81;;;17.65;54.26
34124;BME280;13153;52.316;21.166;2023-04-01T10:56:38;98560.72;;;17.68;53.62
34124;BME280;13153;52.316;21.166;2023-04-01T11:09:38;98557.53;;;18.88;50.46
34124;BME280;13153;52.316;21.166;2023-04-01T11:24:36;98548.97;;;19.03;48.11
34124;BME280;13153;52.316;21.166;2023-04-01T11:33:43;98555.28;;;19.00;47.16
34124;BME280;13153;52.316;21.166;2023-04-01T11:36:42;98555.03;;;18.83;46.74
34124;BME280;13153;52.316;21.166;2023-04-01T11:39:37;98554.22;;;18.81;47.05
34124;BME280;13153;52.316;21.166;2023-04-01T11:42:49;98564.88;;;18.81;47.38
34124;BME280;13153;52.316;21.166;2023-04-01T11:48:32;98575.19;;;18.40;51.28
34124;BME280;13153;52.316;21.166;2023-04-01T11:52:10;98573.53;;;18.10;52.96
34124;BME280;13153;52.316;21.166;2023-04-01T11:55:23;98572.53;;;17.88;54.76
34124;BME280;13153;52.316;21.166;2023-04-01T11:58:17;98583.44;;;17.78;55.75
34124;BME280;13153;52.316;21.166;2023-04-01T12:00:58;98577.59;;;17.67;56.13
34124;BME280;13153;52.316;21.166;2023-04-01T12:04:19;98582.16;;;17.62;55.89
34124;BME280;13153;52.316;21.166;2023-04-01T12:19:03;98581.97;;;17.39;57.92
34124;BME280;13153;52.316;21.166;2023-04-01T12:25:14;98580.59;;;17.55;56.16
34124;BME280;13153;52.316;21.166;2023-04-01T12:28:25;98582.88;;;17.69;55.97
34124;BME280;13153;52.316;21.166;2023-04-01T12:37:12;98595.63;;;17.86;55.43
34124;BME280;13153;52.316;21.166;2023-04-01T12:57:14;98588.38;;;18.43;50.70
34124;BME280;13153;52.316;21.166;2023-04-01T13:00:27;98591.88;;;18.45;50.78
34124;BME280;13153;52.316;21.166;2023-04-01T13:03:01;98598.16;;;18.43;50.63
34124;BME280;13153;52.316;21.166;2023-04-01T13:08:55;98602.94;;;18.58;50.89
34124;BME280;13153;52.316;21.166;2023-04-01T13:16:58;98610.72;;;18.66;49.15
34124;BME280;13153;52.316;21.166;2023-04-01T13:19:49;98615.16;;;18.65;48.89
34124;BME280;13153;52.316;21.166;2023-04-01T13:22:28;98613.47;;;18.63;49.18
34124;BME280;13153;52.316;21.166;2023-04-01T13:26:21;98619.81;;;18.59;49.72
34124;BME280;13153;52.316;21.166;2023-04-01T13:28:29;98614.63;;;18.54;49.89
34124;BME280;13153;52.316;21.166;2023-04-01T13:42:47;98633.53;;;18.20;51.56
34124;BME280;13153;52.316;21.166;2023-04-01T13:46:05;98634.50;;;18.18;51.74
34124;BME280;13153;52.316;21.166;2023-04-01T13:55:01;98647.78;;;18.19;51.96
34124;BME280;13153;52.316;21.166;2023-04-01T13:57:43;98649.59;;;18.17;52.13
34124;BME280;13153;52.316;21.166;2023-04-01T14:06:59;98654.91;;;17.91;52.05
34124;BME280;13153;52.316;21.166;2023-04-01T14:25:41;98667.88;;;17.41;55.51
34124;BME280;13153;52.316;21.166;2023-04-01T14:28:50;98667.53;;;17.22;55.54
34124;BME280;13153;52.316;21.166;2023-04-01T14:45:43;98692.34;;;16.55;58.23
34124;BME280;13153;52.316;21.166;2023-04-01T14:48:33;98699.53;;;16.49;58.95
34124;BME280;13153;52.316;21.166;2023-04-01T14:54:19;98709.75;;;16.29;58.92
34124;BME280;13153;52.316;21.166;2023-04-01T15:00:37;98719.88;;;16.13;59.51
34124;BME280;13153;52.316;21.166;2023-04-01T15:09:06;98721.03;;;16.02;59.74
34124;BME280;13153;52.316;21.166;2023-04-01T15:16:42;98731.22;;;15.80;59.52
34124;BME280;13153;52.316;21.166;2023-04-01T15:19:38;98734.22;;;15.63;60.25
34124;BME280;13153;52.316;21.166;2023-04-01T15:22:39;98737.97;;;15.51;60.65
34124;BME280;13153;52.316;21.166;2023-04-01T15:28:55;98753.00;;;15.51;60.77
34124;BME280;13153;52.316;21.166;2023-04-01T15:31:42;98758.31;;;15.51;60.67
34124;BME280;13153;52.316;21.166;2023-04-01T15:43:49;98770.00;;;15.41;60.53
34124;BME280;13153;52.316;21.166;2023-04-01T15:46:43;98776.25;;;15.37;60.46
34124;BME280;13153;52.316;21.166;2023-04-01T15:55:41;98794.50;;;15.03;60.70
34124;BME280;13153;52.316;21.166;2023-04-01T15:58:51;98796.47;;;14.93;60.75
34124;BME280;13153;52.316;21.166;2023-04-01T16:18:34;98836.06;;;14.44;60.89
34124;BME280;13153;52.316;21.166;2023-04-01T16:24:17;98840.41;;;14.46;60.86
34124;BME280;13153;52.316;21.166;2023-04-01T16:29:56;98852.66;;;14.53;60.48
34124;BME280;13153;52.316;21.166;2023-04-01T16:32:52;98858.03;;;14.47;60.57
34124;BME280;13153;52.316;21.166;2023-04-01T16:36:07;98864.16;;;14.52;60.46
34124;BME280;13153;52.316;21.166;2023-04-01T16:39:43;98865.91;;;14.53;60.48
34124;BME280;13153;52.316;21.166;2023-04-01T16:48:12;98887.47;;;14.21;60.38
34124;BME280;13153;52.316;21.166;2023-04-01T16:51:21;98887.31;;;14.34;60.46
34124;BME280;13153;52.316;21.166;2023-04-01T16:54:44;98898.75;;;14.37;59.77
34124;BME280;13153;52.316;21.166;2023-04-01T17:00:48;98910.16;;;14.41;59.56
34124;BME280;13153;52.316;21.166;2023-04-01T17:03:38;98911.94;;;14.43;59.64
34124;BME280;13153;52.316;21.166;2023-04-01T17:06:49;98910.16;;;14.44;59.97
34124;BME280;13153;52.316;21.166;2023-04-01T17:09:50;98918.88;;;14.50;59.83
34124;BME280;13153;52.316;21.166;2023-04-01T17:12:44;98919.72;;;14.52;60.04
34124;BME280;13153;52.316;21.166;2023-04-01T17:21:47;98929.31;;;14.61;60.34
34124;BME280;13153;52.316;21.166;2023-04-01T17:30:30;98949.47;;;14.73;59.99
34124;BME280;13153;52.316;21.166;2023-04-01T17:36:09;98949.47;;;14.73;60.20
34124;BME280;13153;52.316;21.166;2023-04-01T17:42:06;98963.63;;;14.70;59.93
34124;BME280;13153;52.316;21.166;2023-04-01T17:44:51;98972.44;;;14.71;59.68
34124;BME280;13153;52.316;21.166;2023-04-01T17:47:49;98970.59;;;14.77;59.64
34124;BME280;13153;52.316;21.166;2023-04-01T17:53:38;98990.84;;;14.80;59.06
34124;BME280;13153;52.316;21.166;2023-04-01T17:56:18;98990.88;;;14.77;59.06
34124;BME280;13153;52.316;21.166;2023-04-01T17:59:03;98992.69;;;14.73;59.25
34124;BME280;13153;52.316;21.166;2023-04-01T18:19:19;99022.72;;;14.72;58.06
34124;BME280;13153;52.316;21.166;2023-04-01T18:31:48;99039.59;;;14.62;57.89
34124;BME280;13153;52.316;21.166;2023-04-01T18:44:24;99069.41;;;14.81;57.94
34124;BME280;13153;52.316;21.166;2023-04-01T18:47:41;99065.00;;;14.80;58.01
34124;BME280;13153;52.316;21.166;2023-04-01T18:56:41;99077.31;;;14.82;57.74
34124;BME280;13153;52.316;21.166;2023-04-01T19:02:36;99087.06;;;14.80;57.59
34124;BME280;13153;52.316;21.166;2023-04-01T19:05:33;99087.00;;;14.83;57.03
34124;BME280;13153;52.316;21.166;2023-04-01T19:29:41;99115.75;;;14.34;57.44
34124;BME280;13153;52.316;21.166;2023-04-01T19:46:43;99136.06;;;14.31;58.19
34124;BME280;13153;52.316;21.166;2023-04-01T20:00:40;99149.25;;;14.35;58.35
34124;BME280;13153;52.316;21.166;2023-04-01T20:11:50;99157.28;;;14.26;58.36
34124;BME280;13153;52.316;21.166;2023-04-01T20:14:53;99161.69;;;14.26;58.38
34124;BME280;13153;52.316;21.166;2023-04-01T20:17:38;99167.84;;;14.26;58.80
34124;BME280;13153;52.316;21.166;2023-04-01T20:25:30;99174.91;;;14.27;57.93
34124;BME280;13153;52.316;21.166;2023-04-01T20:33:52;99186.38;;;14.26;57.45
34124;BME280;13153;52.316;21.166;2023-04-01T20:40:03;99188.22;;;14.12;57.13
34124;BME280;13153;52.316;21.166;2023-04-01T20:45:58;99202.47;;;13.89;57.40
34124;BME280;13153;52.316;21.166;2023-04-01T20:48:38;99202.56;;;13.82;57.48
34124;BME280;13153;52.316;21.166;2023-04-01T20:51:12;99198.19;;;13.76;57.69
34124;BME280;13153;52.316;21.166;2023-04-01T20:53:50;99214.03;;;13.76;57.32
34124;BME280;13153;52.316;21.166;2023-04-01T20:56:27;99216.72;;;13.67;56.92
34124;BME280;13153;52.316;21.166;2023-04-01T21:11:01;99226.47;;;13.56;57.56
34124;BME280;13153;52.316;21.166;2023-04-01T21:22:30;99240.63;;;13.32;57.83
34124;BME280;13153;52.316;21.166;2023-04-01T21:31:00;99252.94;;;13.39;57.66
34124;BME280;13153;52.316;21.166;2023-04-01T22:05:25;99284.66;;;13.33;56.76
34124;BME280;13153;52.316;21.166;2023-04-01T22:16:58;99301.41;;;13.12;56.71
34124;BME280;13153;52.316;21.166;2023-04-01T22:31:36;99316.38;;;13.07;56.03
34124;BME280;13153;52.316;21.166;2023-04-01T22:38:26;99319.91;;;13.03;55.88
34124;BME280;13153;52.316;21.166;2023-04-01T22:41:17;99323.44;;;13.02;56.21
34124;BME280;13153;52.316;21.166;2023-04-01T22:43:48;99326.94;;;13.01;55.76
34124;BME280;13153;52.316;21.166;2023-04-01T22:49:20;99331.34;;;12.98;56.23
34124;BME280;13153;52.316;21.166;2023-04-01T22:52:42;99332.22;;;12.98;56.11
34124;BME280;13153;52.316;21.166;2023-04-01T22:55:24;99332.22;;;12.98;55.95
34124;BME280;13153;52.316;21.166;2023-04-01T22:58:04;99345.44;;;13.01;55.97
34124;BME280;13153;52.316;21.166;2023-04-01T23:00:54;99340.16;;;13.03;55.68
34124;BME280;13153;52.316;21.166;2023-04-01T23:03:31;99334.00;;;13.04;55.71
34124;BME280;13153;52.316;21.166;2023-04-01T23:06:01;99334.00;;;13.01;55.13
34124;BME280;13153;52.316;21.166;2023-04-01T23:11:39;99341.03;;;12.97;55.45
34124;BME280;13153;52.316;21.166;2023-04-01T23:17:22;99353.34;;;13.00;55.99
34124;BME280;13153;52.316;21.166;2023-04-01T23:25:40;99356.88;;;12.89;55.62
34124;BME280;13153;52.316;21.166;2023-04-01T23:28:22;99366.56;;;12.89;55.89
34124;BME280;13153;52.316;21.166;2023-04-01T23:30:52;99373.59;;;12.85;56.17
34124;BME280;13153;52.316;21.166;2023-04-01T23:36:11;99373.56;;;12.81;56.25
34124;BME280;13153;52.316;21.166;2023-04-01T23:38:41;99369.19;;;12.80;56.68
34124;BME280;13153;52.316;21.166;2023-04-01T23:41:25;99368.28;;;12.79;56.67
34124;BME280;13153;52.316;21.166;2023-04-01T23:44:09;99374.44;;;12.78;56.25
34124;BME280;13153;52.316;21.166;2023-04-01T23:46:39;99376.22;;;12.78;56.51
34124;BME280;13153;52.316;21.166;2023-04-01T23:52:24;99379.75;;;12.84;56.79
34124;BME280;13153;52.316;21.166;2023-04-01T23:57:37;99386.78;;;12.84;56.16
